Sint-Katelijne-Waver, Belgium
Current Conditions -  °F | °C
As of 6:20 AM on Monday 22 Dec 2014 (Local Time) from EBAW Reporting Station
Overcast Overcast  
Wind Chill: 50°   Ceiling: 1000
Heat Index: 50°   Visibility: 6mi
Dew Point: 45°   Wind: 20mph
Humidity: 82%   Direction: 230°SW
Pressure: 30.12"   Gusts: 33mph
Location:  51.07°N, 4.53°E
Report Text: EBAW 220520Z AUTO 23017G29KT 9999 OVC010/// 10/07 Q1020
Loading
Personal Weather Stations






























Interactive Weather Map New forecast layout! Learn more

10-Day Weather Forecast

Advertisements
Track Severe Weather on mobile